sensor_id;sensor_type;location;lat;lon;timestamp;pressure;altitude;pressure_sealevel;temperature;humidity
20228;BME280;12195;55.790;37.572;2022-09-03T00:01:49;100220.23;;;8.17;71.81
20228;BME280;12195;55.790;37.572;2022-09-03T00:04:24;100234.13;;;8.19;71.96
20228;BME280;12195;55.790;37.572;2022-09-03T00:07:05;100237.66;;;8.18;71.98
20228;BME280;12195;55.790;37.572;2022-09-03T00:09:46;100241.20;;;8.16;72.15
20228;BME280;12195;55.790;37.572;2022-09-03T00:12:25;100248.22;;;8.15;72.28
20228;BME280;12195;55.790;37.572;2022-09-03T00:17:47;100252.77;;;8.10;72.23
20228;BME280;12195;55.790;37.572;2022-09-03T00:20:18;100252.69;;;8.12;72.27
20228;BME280;12195;55.790;37.572;2022-09-03T00:22:53;100257.03;;;8.13;72.28
20228;BME280;12195;55.790;37.572;2022-09-03T00:25:46;100261.45;;;8.11;72.35
20228;BME280;12195;55.790;37.572;2022-09-03T00:28:19;100269.34;;;8.09;72.31
20228;BME280;12195;55.790;37.572;2022-09-03T00:31:42;100271.17;;;8.07;72.43
20228;BME280;12195;55.790;37.572;2022-09-03T00:33:32;100280.95;;;8.02;72.78
20228;BME280;12195;55.790;37.572;2022-09-03T00:38:43;100284.77;;;7.92;73.13
20228;BME280;12195;55.790;37.572;2022-09-03T00:47:23;100292.07;;;7.83;73.50
20228;BME280;12195;55.790;37.572;2022-09-03T00:52:40;100302.94;;;7.71;74.09
20228;BME280;12195;55.790;37.572;2022-09-03T00:55:26;100300.41;;;7.69;74.13
20228;BME280;12195;55.790;37.572;2022-09-03T00:58:10;100305.69;;;7.68;74.19
20228;BME280;12195;55.790;37.572;2022-09-03T01:00:41;100302.16;;;7.69;73.89
20228;BME280;12195;55.790;37.572;2022-09-03T01:06:17;100311.09;;;7.62;74.04
20228;BME280;12195;55.790;37.572;2022-09-03T01:11:58;100313.15;;;7.52;74.39
20228;BME280;12195;55.790;37.572;2022-09-03T01:17:31;100308.18;;;7.45;74.89
20228;BME280;12195;55.790;37.572;2022-09-03T01:34:16;100326.28;;;7.23;76.60
20228;BME280;12195;55.790;37.572;2022-09-03T01:36:54;100334.95;;;7.25;76.53
20228;BME280;12195;55.790;37.572;2022-09-03T01:45:20;100332.37;;;7.24;76.56
20228;BME280;12195;55.790;37.572;2022-09-03T01:50:57;100343.86;;;7.18;77.03
20228;BME280;12195;55.790;37.572;2022-09-03T01:56:52;100350.98;;;7.13;77.17
20228;BME280;12195;55.790;37.572;2022-09-03T02:02:22;100357.87;;;7.16;76.91
20228;BME280;12195;55.790;37.572;2022-09-03T02:04:58;100351.90;;;7.12;77.01
20228;BME280;12195;55.790;37.572;2022-09-03T02:07:33;100361.48;;;7.12;77.11
20228;BME280;12195;55.790;37.572;2022-09-03T02:10:11;100355.46;;;7.10;77.12
20228;BME280;12195;55.790;37.572;2022-09-03T02:12:47;100355.46;;;7.10;77.20
20228;BME280;12195;55.790;37.572;2022-09-03T02:15:21;100371.12;;;7.10;77.18
20228;BME280;12195;55.790;37.572;2022-09-03T02:17:56;100371.92;;;7.12;77.01
20228;BME280;12195;55.790;37.572;2022-09-03T02:20:30;100373.78;;;7.08;77.17
20228;BME280;12195;55.790;37.572;2022-09-03T02:23:03;100387.62;;;7.10;77.05
20228;BME280;12195;55.790;37.572;2022-09-03T02:25:38;100383.31;;;7.09;77.14
20228;BME280;12195;55.790;37.572;2022-09-03T02:28:10;100381.70;;;7.05;77.32
20228;BME280;12195;55.790;37.572;2022-09-03T02:30:46;100375.56;;;7.06;77.13
20228;BME280;12195;55.790;37.572;2022-09-03T02:33:18;100378.22;;;7.05;77.30
20228;BME280;12195;55.790;37.572;2022-09-03T02:35:50;100387.03;;;7.01;77.54
20228;BME280;12195;55.790;37.572;2022-09-03T02:38:25;100385.41;;;6.97;77.52
20228;BME280;12195;55.790;37.572;2022-09-03T02:40:58;100380.98;;;7.00;77.23
20228;BME280;12195;55.790;37.572;2022-09-03T02:46:28;100381.94;;;6.98;77.55
20228;BME280;12195;55.790;37.572;2022-09-03T02:48:59;100376.80;;;6.95;77.61
20228;BME280;12195;55.790;37.572;2022-09-03T02:51:34;100377.55;;;6.98;77.36
20228;BME280;12195;55.790;37.572;2022-09-03T02:54:05;100380.98;;;7.00;77.34
20228;BME280;12195;55.790;37.572;2022-09-03T02:56:37;100381.45;;;7.13;77.08
20228;BME280;12195;55.790;37.572;2022-09-03T02:59:09;100387.11;;;6.99;77.16
20228;BME280;12195;55.790;37.572;2022-09-03T03:01:41;100389.72;;;6.99;77.39
20228;BME280;12195;55.790;37.572;2022-09-03T03:04:15;100391.50;;;6.97;77.93
20228;BME280;12195;55.790;37.572;2022-09-03T03:06:47;100392.27;;;7.01;78.01
20228;BME280;12195;55.790;37.572;2022-09-03T03:09:20;100392.14;;;7.05;77.84
20228;BME280;12195;55.790;37.572;2022-09-03T03:11:53;100391.06;;;7.12;77.85
20228;BME280;12195;55.790;37.572;2022-09-03T03:14:25;100393.56;;;7.15;77.92
20228;BME280;12195;55.790;37.572;2022-09-03T03:16:57;100407.25;;;7.23;77.74
20228;BME280;12195;55.790;37.572;2022-09-03T03:19:29;100404.47;;;7.29;77.65
20228;BME280;12195;55.790;37.572;2022-09-03T03:22:01;100410.36;;;7.36;77.32
20228;BME280;12195;55.790;37.572;2022-09-03T03:24:33;100410.07;;;7.45;76.78
20228;BME280;12195;55.790;37.572;2022-09-03T03:27:06;100405.42;;;7.54;76.26
20228;BME280;12195;55.790;37.572;2022-09-03T03:29:40;100409.66;;;7.58;75.92
20228;BME280;12195;55.790;37.572;2022-09-03T03:32:12;100416.49;;;7.62;76.07
20228;BME280;12195;55.790;37.572;2022-09-03T03:34:44;100420.81;;;7.63;75.89
20228;BME280;12195;55.790;37.572;2022-09-03T03:37:16;100425.86;;;7.69;75.93
20228;BME280;12195;55.790;37.572;2022-09-03T03:39:48;100425.66;;;7.75;75.61
20228;BME280;12195;55.790;37.572;2022-09-03T03:42:21;100429.02;;;7.79;75.70
20228;BME280;12195;55.790;37.572;2022-09-03T03:44:53;100434.97;;;7.84;75.80
20228;BME280;12195;55.790;37.572;2022-09-03T03:47:25;100431.23;;;7.91;75.33
20228;BME280;12195;55.790;37.572;2022-09-03T03:49:58;100434.58;;;7.96;75.15
20228;BME280;12195;55.790;37.572;2022-09-03T03:52:30;100431.80;;;8.00;74.98
20228;BME280;12195;55.790;37.572;2022-09-03T03:55:03;100428.13;;;8.06;74.43
20228;BME280;12195;55.790;37.572;2022-09-03T03:57:37;100433.22;;;8.10;74.54
20228;BME280;12195;55.790;37.572;2022-09-03T04:00:10;100428.69;;;8.15;74.64
20228;BME280;12195;55.790;37.572;2022-09-03T04:02:44;100423.22;;;8.23;74.26
20228;BME280;12195;55.790;37.572;2022-09-03T04:05:16;100429.10;;;8.29;73.61
20228;BME280;12195;55.790;37.572;2022-09-03T04:07:50;100411.66;;;8.30;72.48
20228;BME280;12195;55.790;37.572;2022-09-03T04:10:22;100411.66;;;8.30;72.48
20228;BME280;12195;55.790;37.572;2022-09-03T04:12:54;100439.06;;;8.44;72.72
20228;BME280;12195;55.790;37.572;2022-09-03T04:15:26;100441.45;;;8.50;72.46
20228;BME280;12195;55.790;37.572;2022-09-03T04:17:58;100446.48;;;8.56;72.37
20228;BME280;12195;55.790;37.572;2022-09-03T04:20:31;100444.61;;;8.60;71.78
20228;BME280;12195;55.790;37.572;2022-09-03T04:23:03;100438.26;;;8.67;71.96
20228;BME280;12195;55.790;37.572;2022-09-03T04:25:35;100448.59;;;8.71;71.54
20228;BME280;12195;55.790;37.572;2022-09-03T04:28:07;100445.83;;;8.74;71.43
20228;BME280;12195;55.790;37.572;2022-09-03T04:30:39;100444.77;;;8.80;71.07
20228;BME280;12195;55.790;37.572;2022-09-03T04:33:13;100448.12;;;8.83;70.82
20228;BME280;12195;55.790;37.572;2022-09-03T04:35:46;100454.95;;;8.87;70.53
20228;BME280;12195;55.790;37.572;2022-09-03T04:38:18;100460.91;;;8.92;70.37
20228;BME280;12195;55.790;37.572;2022-09-03T04:40:53;100451.22;;;8.94;70.33
20228;BME280;12195;55.790;37.572;2022-09-03T04:43:27;100452.81;;;8.98;70.49
20228;BME280;12195;55.790;37.572;2022-09-03T04:46:00;100457.71;;;9.07;69.94
20228;BME280;12195;55.790;37.572;2022-09-03T04:48:34;100455.14;;;9.06;70.03
20228;BME280;12195;55.790;37.572;2022-09-03T04:51:10;100454.07;;;9.11;70.12
20228;BME280;12195;55.790;37.572;2022-09-03T04:53:45;100449.45;;;9.18;69.99
20228;BME280;12195;55.790;37.572;2022-09-03T04:56:29;100447.46;;;9.24;69.80
20228;BME280;12195;55.790;37.572;2022-09-03T04:58:57;100451.56;;;9.31;69.44
20228;BME280;12195;55.790;37.572;2022-09-03T05:01:32;100449.63;;;9.36;68.86
20228;BME280;12195;55.790;37.572;2022-09-03T05:04:06;100447.70;;;9.41;68.72
20228;BME280;12195;55.790;37.572;2022-09-03T05:06:38;100457.94;;;9.47;69.20
20228;BME280;12195;55.790;37.572;2022-09-03T05:09:10;100454.19;;;9.54;69.17
20228;BME280;12195;55.790;37.572;2022-09-03T05:11:42;100460.05;;;9.61;68.65
20228;BME280;12195;55.790;37.572;2022-09-03T05:14:14;100457.17;;;9.67;68.70
20228;BME280;12195;55.790;37.572;2022-09-03T05:16:46;100461.16;;;9.77;68.55
20228;BME280;12195;55.790;37.572;2022-09-03T05:19:20;100454.82;;;9.82;67.90
20228;BME280;12195;55.790;37.572;2022-09-03T05:21:52;100463.59;;;10.03;68.12
20228;BME280;12195;55.790;37.572;2022-09-03T05:24:24;100461.39;;;9.92;67.43
20228;BME280;12195;55.790;37.572;2022-09-03T05:26:56;100471.77;;;9.95;67.63
20228;BME280;12195;55.790;37.572;2022-09-03T05:29:28;100467.19;;;10.00;67.50
20228;BME280;12195;55.790;37.572;2022-09-03T05:32:00;100467.89;;;10.05;67.36
20228;BME280;12195;55.790;37.572;2022-09-03T05:34:34;100475.59;;;10.10;67.46
20228;BME280;12195;55.790;37.572;2022-09-03T05:37:06;100476.13;;;10.18;67.12
20228;BME280;12195;55.790;37.572;2022-09-03T05:39:38;100476.84;;;10.21;67.00
20228;BME280;12195;55.790;37.572;2022-09-03T05:42:10;100478.48;;;10.24;67.01
20228;BME280;12195;55.790;37.572;2022-09-03T05:44:44;100486.97;;;10.30;66.81
20228;BME280;12195;55.790;37.572;2022-09-03T05:47:18;100481.53;;;10.35;66.52
20228;BME280;12195;55.790;37.572;2022-09-03T05:49:50;100487.39;;;10.41;66.67
20228;BME280;12195;55.790;37.572;2022-09-03T05:52:23;100486.76;;;10.56;66.66
20228;BME280;12195;55.790;37.572;2022-09-03T05:54:55;100490.56;;;10.89;65.48
20228;BME280;12195;55.790;37.572;2022-09-03T05:57:27;100492.06;;;11.34;64.04
20228;BME280;12195;55.790;37.572;2022-09-03T06:00:00;100491.69;;;11.98;61.74
20228;BME280;12195;55.790;37.572;2022-09-03T06:02:34;100491.23;;;12.60;60.20
20228;BME280;12195;55.790;37.572;2022-09-03T06:05:07;100495.45;;;12.98;58.34
20228;BME280;12195;55.790;37.572;2022-09-03T06:07:39;100487.77;;;13.26;57.31
20228;BME280;12195;55.790;37.572;2022-09-03T06:10:11;100493.55;;;13.96;55.65
20228;BME280;12195;55.790;37.572;2022-09-03T06:12:43;100488.67;;;14.94;52.60
20228;BME280;12195;55.790;37.572;2022-09-03T06:15:17;100486.27;;;15.75;50.83
20228;BME280;12195;55.790;37.572;2022-09-03T06:17:49;100487.20;;;16.68;48.07
20228;BME280;12195;55.790;37.572;2022-09-03T06:20:22;100482.36;;;16.99;46.95
20228;BME280;12195;55.790;37.572;2022-09-03T06:22:56;100480.27;;;17.54;45.69
20228;BME280;12195;55.790;37.572;2022-09-03T06:25:28;100479.62;;;17.99;44.36
20228;BME280;12195;55.790;37.572;2022-09-03T06:28:01;100480.75;;;18.08;43.67
20228;BME280;12195;55.790;37.572;2022-09-03T06:30:34;100483.88;;;18.25;43.07
20228;BME280;12195;55.790;37.572;2022-09-03T06:33:06;100478.52;;;18.14;43.37
20228;BME280;12195;55.790;37.572;2022-09-03T06:35:38;100483.77;;;18.27;43.18
20228;BME280;12195;55.790;37.572;2022-09-03T06:38:13;100480.19;;;18.51;42.29
20228;BME280;12195;55.790;37.572;2022-09-03T06:40:50;100482.42;;;18.68;40.92
20228;BME280;12195;55.790;37.572;2022-09-03T06:43:20;100480.83;;;19.11;40.22
20228;BME280;12195;55.790;37.572;2022-09-03T06:45:58;100484.40;;;19.89;38.75
20228;BME280;12195;55.790;37.572;2022-09-03T06:48:32;100492.65;;;20.39;37.58
20228;BME280;12195;55.790;37.572;2022-09-03T06:51:07;100477.13;;;20.97;36.25
20228;BME280;12195;55.790;37.572;2022-09-03T06:53:45;100472.45;;;22.09;34.34
20228;BME280;12195;55.790;37.572;2022-09-03T06:56:22;100471.93;;;23.01;32.42
20228;BME280;12195;55.790;37.572;2022-09-03T06:58:59;100471.52;;;22.96;32.15
20228;BME280;12195;55.790;37.572;2022-09-03T07:01:32;100485.15;;;22.26;33.01
20228;BME280;12195;55.790;37.572;2022-09-03T07:04:07;100484.24;;;21.88;34.19
20228;BME280;12195;55.790;37.572;2022-09-03T07:06:40;100483.02;;;22.11;33.70
20228;BME280;12195;55.790;37.572;2022-09-03T07:09:14;100482.27;;;21.90;33.87
20228;BME280;12195;55.790;37.572;2022-09-03T07:11:48;100483.42;;;21.37;34.14
20228;BME280;12195;55.790;37.572;2022-09-03T07:14:20;100489.05;;;20.61;35.63
20228;BME280;12195;55.790;37.572;2022-09-03T07:16:52;100489.61;;;19.57;37.29
20228;BME280;12195;55.790;37.572;2022-09-03T07:19:24;100496.53;;;18.58;39.46
20228;BME280;12195;55.790;37.572;2022-09-03T07:21:56;100497.13;;;17.66;41.18
20228;BME280;12195;55.790;37.572;2022-09-03T07:24:29;100496.69;;;16.97;42.72
20228;BME280;12195;55.790;37.572;2022-09-03T07:27:02;100510.27;;;16.41;43.08
20228;BME280;12195;55.790;37.572;2022-09-03T07:29:35;100500.64;;;15.85;44.98
20228;BME280;12195;55.790;37.572;2022-09-03T07:32:07;100495.91;;;15.34;46.47
20228;BME280;12195;55.790;37.572;2022-09-03T07:34:39;100499.17;;;14.95;47.42
20228;BME280;12195;55.790;37.572;2022-09-03T07:37:11;100498.92;;;14.70;47.99
20228;BME280;12195;55.790;37.572;2022-09-03T07:39:44;100505.01;;;14.57;48.61
20228;BME280;12195;55.790;37.572;2022-09-03T07:42:16;100508.28;;;14.46;49.41
20228;BME280;12195;55.790;37.572;2022-09-03T07:44:49;100504.80;;;14.46;49.80
20228;BME280;12195;55.790;37.572;2022-09-03T07:47:21;100509.14;;;14.47;49.53
20228;BME280;12195;55.790;37.572;2022-09-03T07:49:55;100503.60;;;14.51;49.25
20228;BME280;12195;55.790;37.572;2022-09-03T07:52:27;100502.73;;;14.51;49.28
20228;BME280;12195;55.790;37.572;2022-09-03T07:54:59;100506.00;;;14.40;49.39
20228;BME280;12195;55.790;37.572;2022-09-03T07:57:33;100497.30;;;14.38;50.04
20228;BME280;12195;55.790;37.572;2022-09-03T08:00:06;100497.21;;;14.40;49.85
20228;BME280;12195;55.790;37.572;2022-09-03T08:02:40;100503.11;;;14.29;49.51
20228;BME280;12195;55.790;37.572;2022-09-03T08:05:13;100501.50;;;14.27;49.35
20228;BME280;12195;55.790;37.572;2022-09-03T08:07:47;100516.23;;;14.31;49.23
20228;BME280;12195;55.790;37.572;2022-09-03T08:10:20;100502.28;;;14.29;49.16
20228;BME280;12195;55.790;37.572;2022-09-03T08:12:54;100498.86;;;14.27;48.60
20228;BME280;12195;55.790;37.572;2022-09-03T08:15:26;100507.28;;;14.18;49.74
20228;BME280;12195;55.790;37.572;2022-09-03T08:18:00;100517.52;;;14.24;50.16
20228;BME280;12195;55.790;37.572;2022-09-03T08:20:34;100506.25;;;14.36;49.99
20228;BME280;12195;55.790;37.572;2022-09-03T08:23:07;100499.55;;;14.60;48.91
20228;BME280;12195;55.790;37.572;2022-09-03T08:25:40;100503.49;;;14.82;48.59
20228;BME280;12195;55.790;37.572;2022-09-03T08:28:13;100509.00;;;14.93;47.96
20228;BME280;12195;55.790;37.572;2022-09-03T08:30:45;100499.08;;;14.97;46.23
20228;BME280;12195;55.790;37.572;2022-09-03T08:33:17;100505.41;;;14.94;46.62
20228;BME280;12195;55.790;37.572;2022-09-03T08:35:55;100494.92;;;14.93;46.68
20228;BME280;12195;55.790;37.572;2022-09-03T08:38:27;100497.25;;;14.83;47.45
20228;BME280;12195;55.790;37.572;2022-09-03T08:41:09;100493.78;;;14.83;46.65
20228;BME280;12195;55.790;37.572;2022-09-03T08:46:31;100492.27;;;14.93;47.15
20228;BME280;12195;55.790;37.572;2022-09-03T08:49:01;100490.63;;;15.20;45.75
20228;BME280;12195;55.790;37.572;2022-09-03T08:51:33;100486.69;;;15.41;44.80
20228;BME280;12195;55.790;37.572;2022-09-03T08:54:08;100492.05;;;15.67;45.13
20228;BME280;12195;55.790;37.572;2022-09-03T08:56:42;100487.50;;;15.83;44.87
20228;BME280;12195;55.790;37.572;2022-09-03T08:59:15;100474.94;;;15.73;44.64
20228;BME280;12195;55.790;37.572;2022-09-03T09:04:47;100497.31;;;15.96;44.42
20228;BME280;12195;55.790;37.572;2022-09-03T09:10:12;100483.53;;;16.44;42.56
20228;BME280;12195;55.790;37.572;2022-09-03T09:21:16;100483.28;;;16.34;42.28
20228;BME280;12195;55.790;37.572;2022-09-03T09:23:49;100496.19;;;16.26;41.34
20228;BME280;12195;55.790;37.572;2022-09-03T09:26:21;100490.20;;;16.23;40.55
20228;BME280;12195;55.790;37.572;2022-09-03T09:29:03;100483.56;;;16.03;40.57
20228;BME280;12195;55.790;37.572;2022-09-03T09:31:38;100474.75;;;16.29;39.58
20228;BME280;12195;55.790;37.572;2022-09-03T09:34:13;100474.75;;;16.29;39.58
20228;BME280;12195;55.790;37.572;2022-09-03T09:36:52;100450.41;;;16.63;39.32
20228;BME280;12195;55.790;37.572;2022-09-03T09:39:23;100450.41;;;16.63;39.32
20228;BME280;12195;55.790;37.572;2022-09-03T09:42:00;100459.55;;;16.84;38.74
20228;BME280;12195;55.790;37.572;2022-09-03T09:44:40;100472.62;;;17.12;38.02
20228;BME280;12195;55.790;37.572;2022-09-03T09:47:20;100466.12;;;17.29;37.10
20228;BME280;12195;55.790;37.572;2022-09-03T09:49:56;100469.00;;;17.38;36.55
20228;BME280;12195;55.790;37.572;2022-09-03T09:52:30;100461.79;;;17.40;36.81
20228;BME280;12195;55.790;37.572;2022-09-03T09:55:15;100467.30;;;17.37;35.95
20228;BME280;12195;55.790;37.572;2022-09-03T09:57:52;100471.01;;;17.10;35.68
20228;BME280;12195;55.790;37.572;2022-09-03T10:00:23;100453.48;;;16.82;36.33
20228;BME280;12195;55.790;37.572;2022-09-03T10:02:56;100451.56;;;16.59;37.04
20228;BME280;12195;55.790;37.572;2022-09-03T10:05:32;100458.61;;;16.46;37.23
20228;BME280;12195;55.790;37.572;2022-09-03T10:08:22;100465.73;;;16.46;36.11
20228;BME280;12195;55.790;37.572;2022-09-03T10:10:51;100466.27;;;16.51;35.86
20228;BME280;12195;55.790;37.572;2022-09-03T10:13:34;100467.97;;;16.52;35.95
20228;BME280;12195;55.790;37.572;2022-09-03T10:16:19;100428.75;;;16.57;35.47
20228;BME280;12195;55.790;37.572;2022-09-03T10:19:08;100428.75;;;16.57;35.47
20228;BME280;12195;55.790;37.572;2022-09-03T10:22:04;100455.61;;;16.77;35.54
20228;BME280;12195;55.790;37.572;2022-09-03T10:25:02;100450.83;;;16.70;35.61
20228;BME280;12195;55.790;37.572;2022-09-03T10:27:30;100453.26;;;16.73;36.15
20228;BME280;12195;55.790;37.572;2022-09-03T10:30:03;100454.97;;;16.86;35.42
20228;BME280;12195;55.790;37.572;2022-09-03T10:35:30;100454.05;;;17.12;35.23
20228;BME280;12195;55.790;37.572;2022-09-03T10:44:13;100456.52;;;17.76;33.82
20228;BME280;12195;55.790;37.572;2022-09-03T10:47:36;100460.63;;;17.93;33.39
20228;BME280;12195;55.790;37.572;2022-09-03T10:49:28;100456.17;;;18.17;33.37
20228;BME280;12195;55.790;37.572;2022-09-03T10:55:15;100458.47;;;17.98;34.11
20228;BME280;12195;55.790;37.572;2022-09-03T11:00:51;100452.89;;;17.77;34.73
20228;BME280;12195;55.790;37.572;2022-09-03T11:03:40;100449.12;;;17.56;35.28
20228;BME280;12195;55.790;37.572;2022-09-03T11:06:23;100461.58;;;17.31;36.04
20228;BME280;12195;55.790;37.572;2022-09-03T11:09:12;100458.70;;;17.09;36.81
20228;BME280;12195;55.790;37.572;2022-09-03T11:12:03;100458.81;;;16.95;36.73
20228;BME280;12195;55.790;37.572;2022-09-03T11:14:34;100454.57;;;16.92;37.01
20228;BME280;12195;55.790;37.572;2022-09-03T11:17:14;100455.00;;;16.99;37.51
20228;BME280;12195;55.790;37.572;2022-09-03T11:19:53;100449.89;;;17.21;36.84
20228;BME280;12195;55.790;37.572;2022-09-03T11:22:21;100448.70;;;17.62;36.48
20228;BME280;12195;55.790;37.572;2022-09-03T11:24:58;100445.65;;;18.15;35.87
20228;BME280;12195;55.790;37.572;2022-09-03T11:30:23;100449.63;;;18.68;38.14
20228;BME280;12195;55.790;37.572;2022-09-03T11:33:04;100456.08;;;18.76;34.68
20228;BME280;12195;55.790;37.572;2022-09-03T11:35:37;100460.50;;;18.65;35.02
20228;BME280;12195;55.790;37.572;2022-09-03T11:43:47;100464.95;;;18.06;42.23
20228;BME280;12195;55.790;37.572;2022-09-03T11:49:12;100451.16;;;17.28;41.90
20228;BME280;12195;55.790;37.572;2022-09-03T11:51:54;100446.19;;;17.11;41.60
20228;BME280;12195;55.790;37.572;2022-09-03T11:57:14;100434.17;;;16.93;41.03
20228;BME280;12195;55.790;37.572;2022-09-03T11:59:47;100436.93;;;16.91;40.59
20228;BME280;12195;55.790;37.572;2022-09-03T12:02:30;100437.89;;;16.90;40.35
20228;BME280;12195;55.790;37.572;2022-09-03T12:05:19;100430.14;;;16.87;40.60
20228;BME280;12195;55.790;37.572;2022-09-03T12:08:11;100438.95;;;16.88;39.81
20228;BME280;12195;55.790;37.572;2022-09-03T12:10:58;100430.57;;;16.81;39.63
20228;BME280;12195;55.790;37.572;2022-09-03T12:19:06;100424.08;;;16.60;40.39
20228;BME280;12195;55.790;37.572;2022-09-03T12:21:39;100412.00;;;16.81;40.16
20228;BME280;12195;55.790;37.572;2022-09-03T12:24:11;100415.48;;;17.19;39.51
20228;BME280;12195;55.790;37.572;2022-09-03T12:26:44;100412.39;;;17.86;38.51
20228;BME280;12195;55.790;37.572;2022-09-03T12:29:24;100410.70;;;20.30;34.67
20228;BME280;12195;55.790;37.572;2022-09-03T12:32:12;100393.45;;;23.18;29.58
20228;BME280;12195;55.790;37.572;2022-09-03T12:34:39;100381.80;;;26.20;25.31
20228;BME280;12195;55.790;37.572;2022-09-03T12:37:22;100380.80;;;26.93;23.61
20228;BME280;12195;55.790;37.572;2022-09-03T12:39:57;100375.37;;;26.05;23.99
20228;BME280;12195;55.790;37.572;2022-09-03T12:42:31;100385.30;;;24.70;25.73
20228;BME280;12195;55.790;37.572;2022-09-03T12:45:06;100390.85;;;23.45;27.42
20228;BME280;12195;55.790;37.572;2022-09-03T12:47:41;100379.17;;;22.90;28.05
20228;BME280;12195;55.790;37.572;2022-09-03T12:50:21;100371.70;;;24.72;25.99
20228;BME280;12195;55.790;37.572;2022-09-03T12:52:59;100375.28;;;25.32;24.71
20228;BME280;12195;55.790;37.572;2022-09-03T12:58:15;100363.00;;;25.29;24.31
20228;BME280;12195;55.790;37.572;2022-09-03T13:00:54;100358.03;;;26.08;23.78
20228;BME280;12195;55.790;37.572;2022-09-03T13:03:43;100359.91;;;26.79;22.69
20228;BME280;12195;55.790;37.572;2022-09-03T13:06:17;100345.66;;;29.13;20.41
20228;BME280;12195;55.790;37.572;2022-09-03T13:08:56;100344.55;;;30.99;18.42
20228;BME280;12195;55.790;37.572;2022-09-03T13:11:31;100348.46;;;31.64;17.48
20228;BME280;12195;55.790;37.572;2022-09-03T13:14:15;100343.25;;;33.01;15.98
20228;BME280;12195;55.790;37.572;2022-09-03T13:16:50;100336.33;;;34.13;15.16
20228;BME280;12195;55.790;37.572;2022-09-03T13:28:15;100330.72;;;34.63;14.37
20228;BME280;12195;55.790;37.572;2022-09-03T13:34:14;100324.84;;;33.60;15.32
20228;BME280;12195;55.790;37.572;2022-09-03T13:39:56;100330.59;;;31.36;16.29
20228;BME280;12195;55.790;37.572;2022-09-03T13:42:33;100327.88;;;29.69;17.65
20228;BME280;12195;55.790;37.572;2022-09-03T13:59:57;100328.81;;;24.45;24.26
20228;BME280;12195;55.790;37.572;2022-09-03T14:11:52;100328.06;;;23.65;26.04
20228;BME280;12195;55.790;37.572;2022-09-03T14:14:44;100312.53;;;25.73;23.65
20228;BME280;12195;55.790;37.572;2022-09-03T14:20:36;100300.73;;;29.63;19.42
20228;BME280;12195;55.790;37.572;2022-09-03T14:23:30;100291.72;;;30.67;18.26
20228;BME280;12195;55.790;37.572;2022-09-03T14:25:58;100292.34;;;29.79;19.26
20228;BME280;12195;55.790;37.572;2022-09-03T14:28:32;100297.53;;;28.43;20.47
20228;BME280;12195;55.790;37.572;2022-09-03T14:31:33;100304.98;;;28.55;21.39
20228;BME280;12195;55.790;37.572;2022-09-03T14:34:31;100299.38;;;25.62;23.59
20228;BME280;12195;55.790;37.572;2022-09-03T14:39:52;100304.96;;;22.64;27.71
20228;BME280;12195;55.790;37.572;2022-09-03T14:45:43;100317.74;;;20.97;30.50
20228;BME280;12195;55.790;37.572;2022-09-03T15:11:12;100303.17;;;18.47;34.93
20228;BME280;12195;55.790;37.572;2022-09-03T15:13:47;100302.28;;;18.36;35.44
20228;BME280;12195;55.790;37.572;2022-09-03T15:25:17;100305.30;;;17.73;36.35
20228;BME280;12195;55.790;37.572;2022-09-03T15:33:34;100296.39;;;17.15;37.77
20228;BME280;12195;55.790;37.572;2022-09-03T15:36:34;100298.97;;;16.91;38.17
20228;BME280;12195;55.790;37.572;2022-09-03T15:39:04;100293.28;;;16.72;38.98
20228;BME280;12195;55.790;37.572;2022-09-03T15:42:03;100294.23;;;16.46;39.37
20228;BME280;12195;55.790;37.572;2022-09-03T15:44:54;100290.94;;;16.30;40.34
20228;BME280;12195;55.790;37.572;2022-09-03T15:47:40;100301.42;;;16.19;40.24
20228;BME280;12195;55.790;37.572;2022-09-03T15:51:07;100296.31;;;16.04;40.69
20228;BME280;12195;55.790;37.572;2022-09-03T15:59:02;100308.56;;;15.92;41.30
20228;BME280;12195;55.790;37.572;2022-09-03T16:07:53;100307.16;;;15.47;43.18
20228;BME280;12195;55.790;37.572;2022-09-03T16:10:31;100290.13;;;15.11;43.90
20228;BME280;12195;55.790;37.572;2022-09-03T16:13:13;100308.28;;;15.03;44.81
20228;BME280;12195;55.790;37.572;2022-09-03T16:15:50;100309.70;;;14.94;44.48
20228;BME280;12195;55.790;37.572;2022-09-03T16:18:33;100315.57;;;14.85;44.57
20228;BME280;12195;55.790;37.572;2022-09-03T16:21:19;100310.38;;;14.84;44.73
20228;BME280;12195;55.790;37.572;2022-09-03T16:27:23;100317.28;;;14.72;45.47
20228;BME280;12195;55.790;37.572;2022-09-03T16:29:18;100323.95;;;14.78;43.81
20228;BME280;12195;55.790;37.572;2022-09-03T16:32:16;100319.25;;;14.55;45.84
20228;BME280;12195;55.790;37.572;2022-09-03T16:50:06;100322.27;;;14.77;46.26
20228;BME280;12195;55.790;37.572;2022-09-03T16:55:59;100325.47;;;14.82;46.06
20228;BME280;12195;55.790;37.572;2022-09-03T17:04:46;100338.87;;;14.93;46.64
20228;BME280;12195;55.790;37.572;2022-09-03T17:07:33;100323.02;;;14.93;46.64
20228;BME280;12195;55.790;37.572;2022-09-03T17:22:04;100346.88;;;15.19;45.54
20228;BME280;12195;55.790;37.572;2022-09-03T17:27:13;100359.53;;;15.28;45.24
20228;BME280;12195;55.790;37.572;2022-09-03T17:29:55;100372.30;;;15.22;50.92
20228;BME280;12195;55.790;37.572;2022-09-03T17:35:31;100383.80;;;13.76;61.32
20228;BME280;12195;55.790;37.572;2022-09-03T17:38:20;100374.20;;;13.29;62.64
20228;BME280;12195;55.790;37.572;2022-09-03T17:46:43;100364.66;;;12.12;68.33